Flight Number: EUR3058 Duration: 11:00
Departure: Paris Charles-de-Gaulle (LFPG) at 08:00 Distance: 4964 Nm
Arrival: Mexico City Int'l Airport (MMMX) at 19:00 Equipment: A340

Weather Information
Paris-Aeroport Charles De Gaulle, France (LFPG) 49-01N 002-32E 109M May 20, 2018 - 09:30 AM EDT / 2018.05.20 1330 UTC
Wind: from the NE (050 degrees) at 12 MPH (10 KT) (direction variable):0
Visibility: greater than 7 mile(s):0 Temperature: 71 F (22 C) Dew Point: 44 F (7 C) Relative Humidity: 37% Pressure (altimeter): 30.09 in. Hg (1019 hPa)
ob: LFPG 201330Z 05010KT 010V090 CAVOK 22/07 Q1019 NOSIG cycle: 13
Sunrise: 04:04 Sunset: 19:28 (UTC)

Mexico City / Licenci, Mexico (MMMX) 19-26N 099-06W May 20, 2018 - 08:44 AM EDT / 2018.05.20 1244 UTC
Wind: from the WSW (240 degrees) at 3 MPH (3 KT):0
Visibility: 8 mile(s):0
Sky conditions: clear Temperature: 60 F (16 C) Dew Point: 51 F (11 C) Relative Humidity: 72% Pressure (altimeter): 30.28 in. Hg (1025 hPa)
ob: MMMX 201244Z 24003KT 8SM SKC 16/11 A3028 NOSIG RMK HZY cycle: 12
Sunrise: 12:01 Sunset: 01:03 (UTC)

TAF:2018/05/20 12:30 TAF MMMX 201122Z 2012/2118 30005KT P6SM SCT080 TX29/2021Z TN15/2012Z FM201800 13005KT P6SM SCT020 FM202200 13012KT P6SM BKN020CB BKN080 TEMPO 2023/2103 2SM TSRA FM210500 03005KT P6SM SCT020 BKN250 FM211600 06005KT P6SM SCT020 SCT080

This route has never been flown.

Route map